This is the latest recevied weather packets stored in our database for station/object R6DH-11. If no packets are shown the sender has not sent any weather packets the latest 10 day(s).
| Time | Temp. | Humidity | Pressure | Rain* | Wind** | Luminosity | Snow |
|---|---|---|---|---|---|---|---|
| 1778199403 | 12.22° C | 76% | 1017.4 hPa | - | - | - | - |
| 1778198501 | 12.22° C | 76% | 1017.4 hPa | - | - | - | - |
| 1778197600 | 12.22° C | 77% | 1017 hPa | - | - | - | - |
| 1778196698 | 12.22° C | 76% | 1016.8 hPa | - | - | - | - |
| 1778195796 | 12.22° C | 75% | 1016.7 hPa | - | - | - | - |
| 1778194895 | 12.78° C | 74% | 1016.4 hPa | - | - | - | - |
| 1778193993 | 12.78° C | 74% | 1016.5 hPa | - | - | - | - |
| 1778193092 | 12.78° C | 74% | 1016.3 hPa | - | - | - | - |
| 1778192190 | 12.78° C | 72% | 1016.6 hPa | - | - | - | - |
| 1778191289 | 12.78° C | 72% | 1016.6 hPa | - | - | - | - |
| 1778190394 | 12.78° C | 71% | 1016.6 hPa | - | - | - | - |
| 1778189486 | 12.78° C | 70% | 1016.5 hPa | - | - | - | - |
| 1778188585 | 13.33° C | 66% | 1016.3 hPa | - | - | - | - |
| 1778187720 | 11.67° C | 66% | 1014.7 hPa | - | - | - | - |
| 1778186818 | 13.33° C | 64% | 1016.3 hPa | - | - | - | - |
| 1778185917 | 13.33° C | 63% | 1016.3 hPa | - | - | - | - |
| 1778185015 | 13.33° C | 62% | 1016.3 hPa | - | - | - | - |
| 1778184114 | 13.33° C | 61% | 1016.3 hPa | - | - | - | - |
| 1778183212 | 13.33° C | 60% | 1016.3 hPa | - | - | - | - |
| 1778182311 | 13.89° C | 59% | 1016.2 hPa | - | - | - | - |
| 1778181409 | 13.33° C | 60% | 1016.5 hPa | - | - | - | - |
| 1778180514 | 12.78° C | 64% | 1015.5 hPa | - | - | - | - |
| 1778179606 | 13.33° C | 65% | 1016.3 hPa | - | - | - | - |
| 1778178704 | 13.33° C | 64% | 1016.3 hPa | - | - | - | - |
| 1778177803 | 12.78° C | 64% | 1014.6 hPa | - | - | - | - |
* Rain since midnight (hover to see other rain measurements)
** Current wind speed in m/s (hover to see current wind gust speed)